Time;durP1;ratioP1;P1;durP2;ratioP2;P2;SDS_P1;SDS_P2;PMS_P1;PMS_P2;Temp;Humidity;BMP_temperature;BMP_pressure;BME280_temperature;BME280_humidity;BME280_pressure;Samples;Min_cycle;Max_cycle;Signal;HPM_P1;HPM_P2
2021/11/22 00:02:09;;;;;;;1.77;0.50;;;3.90;99.90;;;;;;5021848;28;20203;-50
2021/11/22 00:04:36;;;;;;;2.30;0.50;;;3.90;99.90;;;;;;5023086;28;20196;-52
2021/11/22 00:07:03;;;;;;;1.63;0.60;;;3.90;99.90;;;;;;5009757;28;20590;-52
2021/11/22 00:09:32;;;;;;;2.10;1.03;;;3.90;99.90;;;;;;5022485;28;20189;-49
2021/11/22 00:12:01;;;;;;;0.93;0.50;;;3.90;99.90;;;;;;5020047;28;20199;-52
2021/11/22 00:14:27;;;;;;;1.50;0.50;;;3.90;99.90;;;;;;5022157;28;20203;-49
2021/11/22 00:16:54;;;;;;;1.63;0.60;;;3.90;99.90;;;;;;5024669;28;20239;-47
2021/11/22 00:19:21;;;;;;;0.50;0.50;;;3.90;99.90;;;;;;5020857;28;20963;-50
2021/11/22 00:21:47;;;;;;;1.03;0.50;;;3.90;99.90;;;;;;5011452;28;20200;-51
2021/11/22 00:24:14;;;;;;;3.13;0.40;;;3.90;99.90;;;;;;5020523;28;20661;-53
2021/11/22 00:26:40;;;;;;;1.87;0.53;;;3.90;99.90;;;;;;5023950;28;20208;-50
2021/11/22 00:29:08;;;;;;;0.57;0.43;;;3.90;99.90;;;;;;5022125;28;20192;-54
2021/11/22 00:31:51;;;;;;;2.23;0.60;;;3.80;99.90;;;;;;5023055;28;20284;-48
2021/11/22 00:34:31;;;;;;;1.13;0.40;;;3.80;99.90;;;;;;5021212;28;20192;-47
2021/11/22 00:37:26;;;;;;;1.50;0.57;;;3.80;99.90;;;;;;5006416;28;21070;-47
2021/11/22 00:39:53;;;;;;;1.23;0.60;;;3.80;99.90;;;;;;5023995;28;20188;-53
2021/11/22 00:42:19;;;;;;;0.33;0.33;;;3.80;99.90;;;;;;5017438;28;20188;-51
2021/11/22 00:44:47;;;;;;;0.53;0.27;;;3.70;99.90;;;;;;5024239;28;20196;-48
2021/11/22 00:47:14;;;;;;;1.57;0.47;;;3.70;99.90;;;;;;5020175;28;20212;-52
2021/11/22 00:49:40;;;;;;;0.47;0.20;;;3.70;99.90;;;;;;5024368;28;20196;-50
2021/11/22 00:52:08;;;;;;;0.97;0.50;;;3.70;99.90;;;;;;5013363;28;20191;-52
2021/11/22 00:54:35;;;;;;;0.70;0.50;;;3.60;99.90;;;;;;5019544;28;20214;-50
2021/11/22 00:57:02;;;;;;;2.17;0.60;;;3.60;99.90;;;;;;5022677;28;20270;-51
2021/11/22 00:59:28;;;;;;;2.43;0.60;;;3.60;99.90;;;;;;5021532;28;20204;-51
2021/11/22 01:01:56;;;;;;;0.70;0.53;;;3.60;99.90;;;;;;5023842;28;20215;-53
2021/11/22 01:04:23;;;;;;;0.83;0.60;;;3.50;99.90;;;;;;5016299;28;20196;-53
2021/11/22 01:06:51;;;;;;;1.03;0.80;;;3.50;99.90;;;;;;5022723;28;20712;-52
2021/11/22 01:09:17;;;;;;;1.43;0.60;;;3.50;99.90;;;;;;5006766;28;20200;-49
2021/11/22 01:11:44;;;;;;;2.37;0.57;;;3.50;99.90;;;;;;5023475;28;20544;-51
2021/11/22 01:14:11;;;;;;;2.00;0.93;;;3.50;99.90;;;;;;5020379;28;20196;-53
2021/11/22 01:16:38;;;;;;;1.60;0.60;;;3.40;99.90;;;;;;5023449;28;20208;-51
2021/11/22 01:19:07;;;;;;;1.40;0.70;;;3.40;99.90;;;;;;5021694;28;20219;-52
2021/11/22 01:21:34;;;;;;;1.00;0.53;;;3.40;99.90;;;;;;5022228;28;20180;-52
2021/11/22 01:24:01;;;;;;;2.13;0.73;;;3.40;99.90;;;;;;5004234;28;20553;-51
2021/11/22 01:26:28;;;;;;;0.60;0.60;;;3.30;99.90;;;;;;5020709;28;20196;-49
2021/11/22 01:28:55;;;;;;;4.63;0.80;;;3.30;99.90;;;;;;5023673;28;20197;-48
2021/11/22 01:31:21;;;;;;;0.60;0.60;;;3.30;99.90;;;;;;5019698;28;20888;-53
2021/11/22 01:33:51;;;;;;;2.70;0.80;;;3.30;99.90;;;;;;5023720;28;20195;-48
2021/11/22 01:36:19;;;;;;;0.97;0.60;;;3.30;99.90;;;;;;5019199;28;20196;-50
2021/11/22 01:38:45;;;;;;;1.03;0.83;;;3.30;99.90;;;;;;5023101;28;20234;-54
2021/11/22 01:41:12;;;;;;;1.00;0.70;;;3.30;99.90;;;;;;5006467;28;20215;-52
2021/11/22 01:43:39;;;;;;;1.63;0.70;;;3.30;99.90;;;;;;5023022;28;20204;-47
2021/11/22 01:46:06;;;;;;;0.73;0.50;;;3.20;99.90;;;;;;5021205;28;20200;-49
2021/11/22 01:48:33;;;;;;;0.60;0.60;;;3.20;99.90;;;;;;5021779;28;20203;-49
2021/11/22 01:50:59;;;;;;;3.00;0.70;;;3.10;99.90;;;;;;5022526;28;20262;-51
2021/11/22 01:53:27;;;;;;;1.60;0.53;;;3.10;99.90;;;;;;5016039;28;20200;-49
2021/11/22 01:55:54;;;;;;;1.53;1.00;;;3.10;99.90;;;;;;5004698;28;20209;-48
2021/11/22 01:58:20;;;;;;;4.50;0.90;;;3.00;99.90;;;;;;5016805;28;20211;-46
2021/11/22 02:00:49;;;;;;;2.83;1.37;;;3.00;99.90;;;;;;5023437;28;20201;-52
2021/11/22 02:03:17;;;;;;;3.87;1.20;;;3.00;99.90;;;;;;5019144;28;20892;-49
2021/11/22 02:05:45;;;;;;;4.27;1.47;;;3.00;99.90;;;;;;5014671;28;20234;-50
2021/11/22 02:08:13;;;;;;;2.43;2.10;;;2.90;99.90;;;;;;5019048;28;20461;-50
2021/11/22 02:10:41;;;;;;;2.90;1.87;;;2.80;99.90;;;;;;5009518;28;20216;-54
2021/11/22 02:13:08;;;;;;;1.67;1.47;;;2.80;99.90;;;;;;5019378;28;20189;-51
2021/11/22 02:15:35;;;;;;;9.23;7.67;;;2.70;99.90;;;;;;5022380;28;20203;-48
2021/11/22 02:18:03;;;;;;;11.67;8.83;;;2.70;99.90;;;;;;5018146;28;20223;-47
2021/11/22 02:20:32;;;;;;;10.37;7.90;;;2.70;99.90;;;;;;5022448;28;20204;-48
2021/11/22 02:23:01;;;;;;;8.70;5.93;;;2.70;99.90;;;;;;5018775;28;20203;-51
2021/11/22 02:25:30;;;;;;;13.17;10.67;;;2.70;99.90;;;;;;5009935;28;20227;-48
2021/11/22 02:27:59;;;;;;;16.60;11.80;;;2.70;99.90;;;;;;5018881;28;20332;-53
2021/11/22 02:30:30;;;;;;;20.80;12.47;;;2.70;99.90;;;;;;5023019;28;20200;-48
2021/11/22 02:32:58;;;;;;;30.63;18.20;;;2.60;99.90;;;;;;5019163;28;20560;-50
2021/11/22 02:35:25;;;;;;;28.33;17.83;;;2.60;99.90;;;;;;5022864;28;20192;-48
2021/11/22 02:37:53;;;;;;;26.40;14.37;;;2.60;99.90;;;;;;5020485;28;20204;-52
2021/11/22 02:40:20;;;;;;;21.30;11.27;;;2.60;99.90;;;;;;5019604;28;20228;-49
2021/11/22 02:42:47;;;;;;;13.00;8.80;;;2.60;99.90;;;;;;5008189;28;20208;-48
2021/11/22 02:45:16;;;;;;;15.47;7.33;;;2.70;99.90;;;;;;5020966;28;20188;-51
2021/11/22 02:47:44;;;;;;;11.83;7.33;;;2.60;99.90;;;;;;5021973;28;20223;-52
2021/11/22 02:50:12;;;;;;;4.70;4.20;;;2.60;99.90;;;;;;5023984;28;20180;-49
2021/11/22 02:52:39;;;;;;;6.37;4.93;;;2.60;99.90;;;;;;5026173;28;20201;-49
2021/11/22 02:55:10;;;;;;;3.47;2.70;;;2.60;99.90;;;;;;5022837;28;20191;-51
2021/11/22 02:57:37;;;;;;;3.63;3.33;;;2.60;99.90;;;;;;5013651;28;20319;-48
2021/11/22 03:00:11;;;;;;;3.57;2.23;;;2.60;99.90;;;;;;5021980;28;20959;-49
2021/11/22 03:02:38;;;;;;;2.40;2.03;;;2.60;99.90;;;;;;5025978;28;20199;-47
2021/11/22 03:05:06;;;;;;;4.87;3.03;;;2.60;99.90;;;;;;5022476;28;20277;-50
2021/11/22 03:07:32;;;;;;;6.60;4.93;;;2.60;99.90;;;;;;5025941;28;20211;-48
2021/11/22 03:09:59;;;;;;;8.27;4.97;;;2.60;99.90;;;;;;5020372;28;20219;-47
2021/11/22 03:12:27;;;;;;;8.50;6.37;;;2.50;99.90;;;;;;5010963;28;20215;-46
2021/11/22 03:14:54;;;;;;;12.53;6.60;;;2.40;99.90;;;;;;5015895;28;20211;-50
2021/11/22 03:17:21;;;;;;;4.60;2.83;;;2.40;99.90;;;;;;5026094;28;20223;-51
2021/11/22 03:19:47;;;;;;;3.77;2.53;;;2.40;99.90;;;;;;5023686;28;20569;-54
2021/11/22 03:22:14;;;;;;;3.20;2.30;;;2.40;99.90;;;;;;5024395;28;20192;-47
2021/11/22 03:24:41;;;;;;;3.50;1.63;;;2.40;99.90;;;;;;5024913;28;20192;-53
2021/11/22 03:27:08;;;;;;;2.13;1.60;;;2.40;99.90;;;;;;5023199;28;20211;-48
2021/11/22 03:29:36;;;;;;;2.80;1.37;;;2.40;99.90;;;;;;5012574;28;20798;-51
2021/11/22 03:32:02;;;;;;;2.67;1.20;;;2.40;99.90;;;;;;5021732;28;20208;-48
2021/11/22 03:34:29;;;;;;;1.00;0.90;;;2.40;99.90;;;;;;5025667;28;20196;-50
2021/11/22 03:37:01;;;;;;;4.80;1.30;;;2.40;99.90;;;;;;5021641;28;21026;-50
2021/11/22 03:39:28;;;;;;;2.43;1.40;;;2.40;99.90;;;;;;5025592;28;20711;-52
2021/11/22 03:41:56;;;;;;;2.20;1.10;;;2.40;99.90;;;;;;5018164;28;20192;-54
2021/11/22 03:44:24;;;;;;;2.03;1.03;;;2.40;99.90;;;;;;5012237;28;20227;-48
2021/11/22 03:46:55;;;;;;;2.77;2.30;;;2.40;99.90;;;;;;5013974;28;20700;-51
2021/11/22 03:49:23;;;;;;;2.27;1.83;;;2.40;99.90;;;;;;5025333;28;20279;-48
2021/11/22 03:51:50;;;;;;;3.43;1.27;;;2.40;99.90;;;;;;5022611;28;20219;-50
2021/11/22 03:54:18;;;;;;;3.10;1.40;;;2.30;99.90;;;;;;5024591;28;20206;-53
2021/11/22 03:56:45;;;;;;;1.80;1.70;;;2.40;99.90;;;;;;5023332;28;20220;-54
2021/11/22 03:59:13;;;;;;;2.27;1.80;;;2.40;99.90;;;;;;5010595;28;20598;-51
2021/11/22 04:01:40;;;;;;;2.87;1.17;;;2.30;99.90;;;;;;5023282;28;20201;-52
2021/11/22 04:04:08;;;;;;;2.57;1.30;;;2.30;99.90;;;;;;5022520;28;20937;-48
2021/11/22 04:06:35;;;;;;;2.23;0.97;;;2.30;99.90;;;;;;5025155;28;20203;-49
2021/11/22 04:09:02;;;;;;;3.47;1.00;;;2.30;99.90;;;;;;5021177;28;20203;-49
2021/11/22 04:11:29;;;;;;;4.50;1.27;;;2.30;99.90;;;;;;5017353;28;20212;-50
2021/11/22 04:13:56;;;;;;;2.20;0.97;;;2.30;99.90;;;;;;5020854;28;20184;-50
2021/11/22 04:16:23;;;;;;;1.63;1.13;;;2.30;99.90;;;;;;5011983;28;20215;-51
2021/11/22 04:18:49;;;;;;;1.27;1.07;;;2.30;99.90;;;;;;5016379;28;20615;-51
2021/11/22 04:21:21;;;;;;;5.10;1.00;;;2.30;99.90;;;;;;5023972;28;20219;-50
2021/11/22 04:23:48;;;;;;;3.90;1.37;;;2.30;99.90;;;;;;5022422;28;20196;-53
2021/11/22 04:26:14;;;;;;;3.77;1.40;;;2.20;99.90;;;;;;5023762;28;20188;-51
2021/11/22 04:28:42;;;;;;;2.67;1.40;;;2.20;99.90;;;;;;5023499;28;20222;-51
2021/11/22 04:31:09;;;;;;;2.63;1.10;;;2.20;99.90;;;;;;5009530;28;20549;-50
2021/11/22 04:33:36;;;;;;;1.47;1.33;;;2.20;99.90;;;;;;5024447;28;20254;-48
2021/11/22 04:36:03;;;;;;;2.23;1.30;;;2.20;99.90;;;;;;5020945;28;20187;-52
2021/11/22 04:38:31;;;;;;;3.60;1.23;;;2.20;99.90;;;;;;5024645;28;20303;-49
2021/11/22 04:40:57;;;;;;;2.00;1.10;;;2.20;99.90;;;;;;5015967;28;20808;-49
2021/11/22 04:43:24;;;;;;;4.60;1.30;;;2.20;99.90;;;;;;5022024;28;20593;-49
2021/11/22 04:45:51;;;;;;;1.30;1.20;;;2.20;99.90;;;;;;5011291;28;20200;-52
2021/11/22 04:48:17;;;;;;;1.43;1.03;;;2.20;99.90;;;;;;5021593;28;20228;-49
2021/11/22 04:50:44;;;;;;;1.93;1.10;;;2.20;99.90;;;;;;5022526;28;20207;-50
2021/11/22 04:53:11;;;;;;;2.23;1.47;;;2.20;99.90;;;;;;5021926;28;20195;-48
2021/11/22 04:55:39;;;;;;;2.63;1.57;;;2.20;99.90;;;;;;5023746;28;20590;-51
2021/11/22 04:58:08;;;;;;;4.43;1.20;;;2.20;99.90;;;;;;5021141;28;20305;-51
2021/11/22 05:00:35;;;;;;;5.20;1.50;;;2.10;99.90;;;;;;5005522;28;21057;-53
2021/11/22 05:03:02;;;;;;;1.43;1.10;;;2.10;99.90;;;;;;5010143;28;20204;-49
2021/11/22 05:05:29;;;;;;;4.57;1.47;;;2.10;99.90;;;;;;5014806;28;20210;-51
2021/11/22 05:07:56;;;;;;;1.60;1.40;;;2.10;99.90;;;;;;5022681;28;20228;-49
2021/11/22 05:10:28;;;;;;;3.37;1.80;;;2.10;99.90;;;;;;5021436;28;20196;-53
2021/11/22 05:12:56;;;;;;;6.00;1.67;;;2.10;99.90;;;;;;5013550;28;20254;-52
2021/11/22 05:15:22;;;;;;;3.23;1.77;;;2.00;99.90;;;;;;5021690;28;20215;-51
2021/11/22 05:17:49;;;;;;;2.23;1.57;;;2.00;99.90;;;;;;5009029;28;20220;-50
2021/11/22 05:20:15;;;;;;;1.93;1.83;;;2.00;99.90;;;;;;5022245;28;20223;-50
2021/11/22 05:22:42;;;;;;;2.77;2.10;;;2.00;99.90;;;;;;5016062;28;20199;-51
2021/11/22 05:25:09;;;;;;;1.83;1.70;;;2.00;99.90;;;;;;5023692;28;20605;-49
2021/11/22 05:27:36;;;;;;;6.50;2.00;;;2.00;99.90;;;;;;5016505;28;20671;-51
2021/11/22 05:30:05;;;;;;;3.57;1.70;;;2.00;99.90;;;;;;5014221;28;20200;-48
2021/11/22 05:32:32;;;;;;;2.13;1.53;;;2.00;99.90;;;;;;5013810;28;20204;-51
2021/11/22 05:34:58;;;;;;;3.77;1.83;;;2.00;99.90;;;;;;5020721;28;20191;-49
2021/11/22 05:37:27;;;;;;;4.20;2.33;;;2.00;99.90;;;;;;5014034;28;20223;-49
2021/11/22 05:39:55;;;;;;;4.00;1.80;;;2.00;99.90;;;;;;5020181;28;20672;-53
2021/11/22 05:42:21;;;;;;;3.23;2.17;;;2.00;99.90;;;;;;5021227;28;20881;-48
2021/11/22 05:44:48;;;;;;;5.27;2.03;;;2.00;99.90;;;;;;5021086;28;20281;-52
2021/11/22 05:47:16;;;;;;;4.80;1.80;;;2.00;99.90;;;;;;5018020;28;20235;-46
2021/11/22 05:49:43;;;;;;;4.63;1.77;;;2.00;99.90;;;;;;5023055;28;20544;-48
2021/11/22 05:52:11;;;;;;;4.80;1.57;;;1.90;99.90;;;;;;5014702;28;20211;-47
2021/11/22 05:54:46;;;;;;;3.13;1.87;;;1.90;99.90;;;;;;5022875;28;22002;-48
2021/11/22 05:57:13;;;;;;;2.97;1.80;;;1.90;99.90;;;;;;5016937;28;20296;-50
2021/11/22 05:59:40;;;;;;;3.67;1.93;;;1.80;99.90;;;;;;5017116;28;20227;-48
2021/11/22 06:02:07;;;;;;;5.10;2.43;;;1.80;99.90;;;;;;5023003;28;20201;-51
2021/11/22 06:04:35;;;;;;;3.37;2.17;;;1.90;99.90;;;;;;5010946;28;20207;-49
2021/11/22 06:07:02;;;;;;;3.17;2.40;;;1.90;99.90;;;;;;5018793;28;20211;-51
2021/11/22 06:09:29;;;;;;;7.03;2.60;;;1.90;99.90;;;;;;5017666;28;20200;-50
2021/11/22 06:11:56;;;;;;;2.13;2.00;;;1.90;99.90;;;;;;5020159;28;20203;-51
2021/11/22 06:14:23;;;;;;;4.77;2.07;;;1.90;99.90;;;;;;5021475;28;20931;-48
2021/11/22 06:16:49;;;;;;;6.17;2.60;;;1.90;99.90;;;;;;5012865;28;20586;-52
2021/11/22 06:19:16;;;;;;;3.67;1.80;;;1.80;99.90;;;;;;5007285;28;20211;-48
2021/11/22 06:21:44;;;;;;;3.07;1.87;;;1.80;99.90;;;;;;5024414;28;20207;-46
2021/11/22 06:24:11;;;;;;;8.47;1.93;;;1.80;99.90;;;;;;5021479;28;20207;-46
2021/11/22 06:26:37;;;;;;;2.57;1.83;;;1.80;99.90;;;;;;5029990;28;20227;-52
2021/11/22 06:29:04;;;;;;;4.47;2.50;;;1.70;99.90;;;;;;5028587;28;20694;-47
2021/11/22 06:31:31;;;;;;;3.57;2.67;;;1.70;99.90;;;;;;5022086;28;20362;-49
2021/11/22 06:33:57;;;;;;;4.57;3.20;;;1.70;99.90;;;;;;5023331;28;20210;-52
2021/11/22 06:36:24;;;;;;;3.53;2.50;;;1.80;99.90;;;;;;5022647;28;20198;-50
2021/11/22 06:38:52;;;;;;;3.33;2.60;;;1.80;99.90;;;;;;5036873;28;20560;-52
2021/11/22 06:41:19;;;;;;;3.40;2.87;;;1.80;99.90;;;;;;5025866;28;20223;-48
2021/11/22 06:43:45;;;;;;;4.90;2.60;;;1.90;99.90;;;;;;5026572;28;20202;-49
2021/11/22 06:46:12;;;;;;;3.47;3.13;;;1.90;99.90;;;;;;5027504;28;20432;-52
2021/11/22 06:48:39;;;;;;;4.70;2.87;;;1.90;99.90;;;;;;5027494;28;20579;-50
2021/11/22 06:51:05;;;;;;;3.13;2.83;;;1.90;99.90;;;;;;5008545;28;20199;-50
2021/11/22 06:53:32;;;;;;;3.07;2.70;;;2.00;99.90;;;;;;5026155;28;20193;-47
2021/11/22 06:56:00;;;;;;;4.23;3.17;;;1.90;99.90;;;;;;5023627;28;20199;-49
2021/11/22 06:58:27;;;;;;;3.67;2.73;;;2.00;99.90;;;;;;5019977;28;20223;-48
2021/11/22 07:00:53;;;;;;;3.10;2.70;;;2.00;99.90;;;;;;5025952;28;20215;-52
2021/11/22 07:03:20;;;;;;;3.83;2.57;;;1.90;99.90;;;;;;5021689;28;20255;-49
2021/11/22 07:05:48;;;;;;;3.00;2.50;;;1.80;99.90;;;;;;5009866;28;20207;-52
2021/11/22 07:08:14;;;;;;;5.13;2.63;;;1.80;99.90;;;;;;5020452;28;20216;-50
2021/11/22 07:10:41;;;;;;;4.03;2.77;;;1.80;99.90;;;;;;5024754;28;20192;-50
2021/11/22 07:13:09;;;;;;;5.17;2.37;;;1.80;99.90;;;;;;5014968;28;20207;-49
2021/11/22 07:15:37;;;;;;;4.00;2.97;;;1.90;99.90;;;;;;5020536;28;20200;-49
2021/11/22 07:18:04;;;;;;;6.03;3.13;;;1.80;99.90;;;;;;5015454;28;20285;-51
2021/11/22 07:20:32;;;;;;;4.03;3.13;;;1.80;99.90;;;;;;5024527;28;20252;-53
2021/11/22 07:22:59;;;;;;;6.50;3.80;;;1.80;99.90;;;;;;5007126;28;20208;-51
2021/11/22 07:25:26;;;;;;;3.87;3.30;;;1.90;99.90;;;;;;5022114;28;20195;-49
2021/11/22 07:27:53;;;;;;;5.13;3.03;;;1.90;99.90;;;;;;5020551;28;20220;-51
2021/11/22 07:30:21;;;;;;;5.73;3.50;;;1.90;99.90;;;;;;5022486;28;20184;-49
2021/11/22 07:32:52;;;;;;;3.40;2.80;;;1.90;99.90;;;;;;5023306;28;20283;-53
2021/11/22 07:35:20;;;;;;;4.17;2.73;;;2.00;99.90;;;;;;5020480;28;20369;-53
2021/11/22 07:37:48;;;;;;;6.10;3.20;;;2.00;99.90;;;;;;5010661;28;20239;-52
2021/11/22 07:40:15;;;;;;;5.03;3.13;;;2.00;99.90;;;;;;5022165;28;20227;-52
2021/11/22 07:42:41;;;;;;;3.30;2.97;;;2.00;99.90;;;;;;5018233;28;20192;-49
2021/11/22 07:45:08;;;;;;;4.23;3.10;;;2.00;99.90;;;;;;5021325;28;20195;-47
2021/11/22 07:47:36;;;;;;;5.03;2.83;;;2.00;99.90;;;;;;5024301;28;20227;-53
2021/11/22 07:50:04;;;;;;;5.43;2.80;;;2.10;99.90;;;;;;5015879;28;20536;-50
2021/11/22 07:52:31;;;;;;;3.63;3.00;;;2.10;99.90;;;;;;5011828;28;20204;-52
2021/11/22 07:54:57;;;;;;;3.27;2.87;;;2.10;99.90;;;;;;5017543;28;20208;-52
2021/11/22 07:57:24;;;;;;;4.47;3.20;;;2.10;99.90;;;;;;5023902;28;20207;-52
2021/11/22 07:59:51;;;;;;;4.20;3.40;;;2.20;99.90;;;;;;5023062;28;20226;-52
2021/11/22 08:02:18;;;;;;;4.43;3.00;;;2.30;99.90;;;;;;5022219;28;20222;-50
2021/11/22 08:04:46;;;;;;;5.43;3.00;;;2.30;99.90;;;;;;5025007;28;20200;-50
2021/11/22 08:07:16;;;;;;;4.13;2.80;;;2.30;99.90;;;;;;5020582;28;20807;-47
2021/11/22 08:09:54;;;;;;;4.97;3.37;;;2.40;99.90;;;;;;5011652;28;20222;-52
2021/11/22 08:12:27;;;;;;;6.73;3.50;;;2.40;99.90;;;;;;5013014;28;20696;-50
2021/11/22 08:14:56;;;;;;;5.10;3.30;;;2.50;99.90;;;;;;5023038;28;20196;-52
2021/11/22 08:17:23;;;;;;;10.80;4.57;;;2.70;99.90;;;;;;5016615;28;20231;-53
2021/11/22 08:19:52;;;;;;;5.67;4.17;;;2.70;99.90;;;;;;5023684;28;20199;-52
2021/11/22 08:22:20;;;;;;;4.80;4.13;;;2.80;99.90;;;;;;5021966;28;20206;-52
2021/11/22 08:24:50;;;;;;;5.20;3.57;;;2.90;99.90;;;;;;5011254;28;20211;-53
2021/11/22 08:27:17;;;;;;;3.40;3.10;;;2.80;99.90;;;;;;5020842;28;20211;-53
2021/11/22 08:29:44;;;;;;;4.30;3.50;;;2.90;99.90;;;;;;5023830;28;20210;-52
2021/11/22 08:32:11;;;;;;;4.13;3.60;;;2.90;99.90;;;;;;5020534;28;20184;-48
2021/11/22 08:34:37;;;;;;;5.63;3.70;;;2.90;99.90;;;;;;5016423;28;20203;-48
2021/11/22 08:37:06;;;;;;;5.57;4.00;;;3.00;99.90;;;;;;5023015;28;20219;-46
2021/11/22 08:39:32;;;;;;;4.03;3.70;;;3.10;99.90;;;;;;5001395;28;20212;-48
2021/11/22 08:41:59;;;;;;;5.37;3.77;;;3.10;99.90;;;;;;5019564;28;20215;-48
2021/11/22 08:44:26;;;;;;;7.33;4.00;;;3.20;99.90;;;;;;5013799;28;20935;-53
2021/11/22 08:46:53;;;;;;;5.67;3.70;;;3.20;99.90;;;;;;5023110;28;20226;-46
2021/11/22 08:49:20;;;;;;;5.37;3.63;;;3.30;99.90;;;;;;5020451;28;20200;-47
2021/11/22 08:51:46;;;;;;;6.73;3.73;;;3.30;99.90;;;;;;5025386;28;20558;-49
2021/11/22 08:54:15;;;;;;;9.90;5.70;;;3.40;99.90;;;;;;5015121;28;20545;-48
2021/11/22 08:56:42;;;;;;;5.47;4.10;;;3.50;99.90;;;;;;5014323;28;20226;-47
2021/11/22 08:59:09;;;;;;;4.47;3.53;;;3.50;99.90;;;;;;5012882;28;20196;-51
2021/11/22 09:01:36;;;;;;;4.70;3.40;;;3.60;99.90;;;;;;5017303;28;20212;-46
2021/11/22 09:04:03;;;;;;;5.97;3.40;;;3.70;99.90;;;;;;5011259;28;20204;-48
2021/11/22 09:06:29;;;;;;;6.23;4.07;;;3.80;99.90;;;;;;5019776;28;20279;-47
2021/11/22 09:08:56;;;;;;;5.47;3.30;;;3.80;99.90;;;;;;5025806;28;20225;-51
2021/11/22 09:11:24;;;;;;;3.40;3.10;;;3.80;99.90;;;;;;5002758;28;20208;-48
2021/11/22 09:13:50;;;;;;;5.50;3.70;;;3.80;99.90;;;;;;5016603;28;20200;-46
2021/11/22 09:16:17;;;;;;;3.20;2.90;;;3.90;99.90;;;;;;5015521;28;20215;-49
2021/11/22 09:18:44;;;;;;;4.10;3.03;;;3.90;99.90;;;;;;5025042;28;20307;-49
2021/11/22 09:21:11;;;;;;;3.80;3.50;;;3.90;99.90;;;;;;5025039;28;20215;-50
2021/11/22 09:23:37;;;;;;;3.10;2.80;;;4.10;99.90;;;;;;5020623;28;20188;-49
2021/11/22 09:26:04;;;;;;;5.30;3.20;;;4.20;99.90;;;;;;5023550;28;20694;-50
2021/11/22 09:28:34;;;;;;;3.57;3.27;;;4.20;99.90;;;;;;5016008;28;20215;-49
2021/11/22 09:31:00;;;;;;;3.70;2.90;;;4.20;99.90;;;;;;5027754;28;20199;-46
2021/11/22 09:33:27;;;;;;;3.57;3.20;;;4.20;99.90;;;;;;5018524;28;20187;-45
2021/11/22 09:35:54;;;;;;;3.93;3.23;;;4.30;99.90;;;;;;5022953;28;20200;-48
2021/11/22 09:38:20;;;;;;;7.93;2.70;;;4.30;99.90;;;;;;5017751;28;20573;-48
2021/11/22 09:40:47;;;;;;;3.00;2.67;;;4.30;99.90;;;;;;5022470;28;20219;-48
2021/11/22 09:43:14;;;;;;;2.50;2.17;;;4.40;99.90;;;;;;5004939;28;20212;-50
2021/11/22 09:45:43;;;;;;;5.90;2.50;;;4.40;99.90;;;;;;5016699;28;20199;-47
2021/11/22 09:48:09;;;;;;;2.90;2.53;;;4.40;99.90;;;;;;5024380;28;20211;-49
2021/11/22 09:50:36;;;;;;;3.80;2.40;;;4.40;99.90;;;;;;5025539;28;20192;-46
2021/11/22 09:53:04;;;;;;;4.43;2.60;;;4.50;99.90;;;;;;5030006;28;20215;-49
2021/11/22 09:55:32;;;;;;;7.67;2.60;;;4.50;99.90;;;;;;5035614;28;20195;-46
2021/11/22 09:58:00;;;;;;;5.63;2.87;;;4.50;99.90;;;;;;5015513;28;20216;-47
2021/11/22 10:00:34;;;;;;;3.57;2.93;;;4.50;99.90;;;;;;5017271;28;20929;-47
2021/11/22 10:03:02;;;;;;;5.17;2.70;;;4.60;99.90;;;;;;5024128;28;20211;-48
2021/11/22 10:05:33;;;;;;;5.67;2.10;;;4.60;99.90;;;;;;5021735;28;20208;-46
2021/11/22 10:08:06;;;;;;;3.97;2.10;;;4.70;99.90;;;;;;5029832;28;20247;-45
2021/11/22 10:10:35;;;;;;;2.87;2.57;;;4.70;99.90;;;;;;5023684;28;20310;-48
2021/11/22 10:13:18;;;;;;;2.10;1.90;;;4.70;99.90;;;;;;5017893;28;20700;-49
2021/11/22 10:15:44;;;;;;;3.10;1.87;;;4.70;99.90;;;;;;5029708;28;20203;-47
2021/11/22 10:18:17;;;;;;;3.03;2.73;;;4.70;99.90;;;;;;5025613;28;20235;-47
2021/11/22 10:20:44;;;;;;;2.30;2.10;;;4.80;99.90;;;;;;5027762;28;20239;-47
2021/11/22 10:23:12;;;;;;;3.87;1.93;;;4.80;99.90;;;;;;5036262;28;20192;-52
2021/11/22 10:25:41;;;;;;;2.77;1.93;;;4.90;99.90;;;;;;5032166;28;20188;-47
2021/11/22 10:28:11;;;;;;;5.87;1.87;;;4.90;99.90;;;;;;5020354;28;20262;-50
2021/11/22 10:30:40;;;;;;;3.70;1.70;;;4.90;99.90;;;;;;5017825;28;20291;-46
2021/11/22 10:33:09;;;;;;;3.97;1.93;;;5.00;99.90;;;;;;5021571;28;20596;-50
2021/11/22 10:35:38;;;;;;;4.90;2.30;;;5.00;99.90;;;;;;5019438;28;20207;-48
2021/11/22 10:38:10;;;;;;;3.10;2.10;;;5.10;99.90;;;;;;5030199;28;20639;-53
2021/11/22 10:40:40;;;;;;;2.17;1.70;;;5.10;99.90;;;;;;5030855;28;20919;-50
2021/11/22 10:43:08;;;;;;;2.87;1.70;;;5.20;99.90;;;;;;5020745;28;20219;-52
2021/11/22 10:45:37;;;;;;;4.60;2.03;;;5.30;99.90;;;;;;5017252;28;20196;-46
2021/11/22 10:48:18;;;;;;;3.07;1.87;;;5.30;99.90;;;;;;5026857;28;20220;-50
2021/11/22 10:50:52;;;;;;;2.27;1.57;;;5.40;99.90;;;;;;5026715;28;20227;-52
2021/11/22 10:53:27;;;;;;;4.17;1.63;;;5.40;99.90;;;;;;5033281;28;20208;-53
2021/11/22 10:55:54;;;;;;;3.73;1.70;;;5.50;99.90;;;;;;5022534;28;20686;-51
2021/11/22 10:58:31;;;;;;;2.40;2.00;;;5.50;99.90;;;;;;5019561;28;20217;-49
2021/11/22 11:00:58;;;;;;;2.03;1.83;;;5.60;99.90;;;;;;5006761;28;20219;-46
2021/11/22 11:03:28;;;;;;;3.00;1.70;;;5.60;99.90;;;;;;5024649;28;20191;-47
2021/11/22 11:05:59;;;;;;;2.77;1.50;;;5.60;99.90;;;;;;5036885;28;20264;-48
2021/11/22 11:08:30;;;;;;;2.40;1.47;;;5.70;99.90;;;;;;5013563;28;20227;-45
2021/11/22 11:11:09;;;;;;;2.93;1.73;;;5.70;99.90;;;;;;5027061;28;20248;-54
2021/11/22 11:13:44;;;;;;;3.57;1.53;;;5.70;99.90;;;;;;5031016;28;20430;-49
2021/11/22 11:16:11;;;;;;;2.33;1.83;;;5.70;99.90;;;;;;5005669;28;20286;-51
2021/11/22 11:18:38;;;;;;;3.73;1.70;;;5.80;99.90;;;;;;5025510;28;20739;-51
2021/11/22 11:21:06;;;;;;;4.03;2.00;;;5.80;99.90;;;;;;5022364;28;20195;-48
2021/11/22 11:23:33;;;;;;;2.47;1.40;;;5.80;99.90;;;;;;5024744;28;20222;-52
2021/11/22 11:26:00;;;;;;;4.77;1.50;;;5.90;99.90;;;;;;5023763;28;20187;-50
2021/11/22 11:28:27;;;;;;;4.77;1.20;;;5.90;99.90;;;;;;5019964;28;20286;-51
2021/11/22 11:30:54;;;;;;;3.87;1.67;;;6.00;99.90;;;;;;5019914;28;20212;-48
2021/11/22 11:33:21;;;;;;;2.20;1.20;;;6.00;99.90;;;;;;5021388;28;20307;-48
2021/11/22 11:35:48;;;;;;;2.00;1.17;;;6.00;99.90;;;;;;5024428;28;20203;-48
2021/11/22 11:38:24;;;;;;;2.53;1.20;;;6.00;99.90;;;;;;5028581;28;20227;-50
2021/11/22 11:41:07;;;;;;;2.77;0.90;;;6.10;99.90;;;;;;5018751;28;20278;-47
2021/11/22 11:44:00;;;;;;;4.43;1.27;;;6.10;99.90;;;;;;5008693;28;20208;-51
2021/11/22 11:46:38;;;;;;;1.20;0.93;;;6.10;99.90;;;;;;5000494;28;20222;-51
2021/11/22 11:49:08;;;;;;;2.40;1.40;;;6.10;99.90;;;;;;5018416;28;20220;-48
2021/11/22 11:51:39;;;;;;;1.60;1.27;;;6.10;99.90;;;;;;5017614;28;20287;-52
2021/11/22 11:54:10;;;;;;;1.30;0.70;;;6.20;99.90;;;;;;5023790;28;20192;-47
2021/11/22 11:56:39;;;;;;;1.50;0.90;;;6.20;99.90;;;;;;5021222;28;20204;-52
2021/11/22 11:59:14;;;;;;;1.63;0.87;;;6.20;99.90;;;;;;5018987;28;20626;-51
2021/11/22 12:01:59;;;;;;;2.57;0.73;;;6.20;99.90;;;;;;5007136;28;20287;-51
2021/11/22 12:04:27;;;;;;;2.40;1.20;;;6.30;99.90;;;;;;5023443;28;20211;-51
2021/11/22 12:06:56;;;;;;;1.67;0.60;;;6.30;99.90;;;;;;5015862;28;20215;-49
2021/11/22 12:09:30;;;;;;;1.70;0.80;;;6.40;99.90;;;;;;5021517;28;20282;-48
2021/11/22 12:11:59;;;;;;;3.87;0.80;;;6.50;99.90;;;;;;5021335;28;20180;-49
2021/11/22 12:14:48;;;;;;;2.50;0.90;;;6.50;99.90;;;;;;5025877;28;20281;-52
2021/11/22 12:17:49;;;;;;;3.00;0.77;;;6.50;99.90;;;;;;5010808;28;20696;-48
2021/11/22 12:20:42;;;;;;;1.57;0.90;;;6.50;99.90;;;;;;5020650;28;20223;-51
2021/11/22 12:23:11;;;;;;;0.87;0.47;;;6.50;99.90;;;;;;5019490;28;20227;-49
2021/11/22 12:25:46;;;;;;;1.03;0.60;;;6.50;99.90;;;;;;5020857;28;20196;-54
2021/11/22 12:28:15;;;;;;;0.63;0.60;;;6.50;99.90;;;;;;5022880;28;20214;-47
2021/11/22 12:30:43;;;;;;;0.93;0.60;;;6.60;99.90;;;;;;5015897;28;20212;-54
2021/11/22 12:33:33;;;;;;;5.23;0.80;;;6.50;99.90;;;;;;5010831;28;20212;-49
2021/11/22 12:36:02;;;;;;;0.90;0.60;;;6.50;99.90;;;;;;5021521;28;20194;-47
2021/11/22 12:38:31;;;;;;;2.30;0.60;;;6.50;99.90;;;;;;5017378;28;20235;-51
2021/11/22 12:41:01;;;;;;;1.53;0.60;;;6.50;99.90;;;;;;5020837;28;20184;-52
2021/11/22 12:43:40;;;;;;;0.53;0.50;;;6.50;99.90;;;;;;5028901;28;20303;-50
2021/11/22 12:46:08;;;;;;;0.97;0.90;;;6.40;99.90;;;;;;5030001;28;20906;-47
2021/11/22 12:48:37;;;;;;;1.37;0.40;;;6.50;99.90;;;;;;5008964;28;20224;-50
2021/11/22 12:51:06;;;;;;;2.07;0.70;;;6.60;99.90;;;;;;5032537;28;20215;-48
2021/11/22 12:53:33;;;;;;;2.13;0.70;;;6.60;99.90;;;;;;5009931;28;20200;-49
2021/11/22 12:56:02;;;;;;;3.70;0.93;;;6.60;99.90;;;;;;5023865;28;20187;-47
2021/11/22 12:58:31;;;;;;;1.73;0.90;;;6.60;99.90;;;;;;5022699;28;20246;-52
2021/11/22 13:00:59;;;;;;;4.97;0.87;;;6.50;99.90;;;;;;5023356;28;20184;-53
2021/11/22 13:03:28;;;;;;;4.13;0.63;;;6.50;99.90;;;;;;5010130;28;20235;-52